Esneux, Belgium
Current Conditions -  °F | °C
As of 2:20 PM on Saturday 25 Oct 2014 (Local Time) from EBLG Reporting Station
Drizzle Drizzle  
Wind Chill: 13°   Ceiling: 700
Heat Index: 13°   Visibility: 4mi
Dew Point: 12°   Wind: 8mph
Humidity: 94%   Direction: 210°SSW
Pressure: 30.12"   Gusts: NA
Location:  50.54°N, 5.57°E
Report Text: EBLG 251220Z 21007KT 6000 -DZ SCT005 BKN007 13/12 Q1020 TEMPO 3000 -DZ BKN005
Loading
Personal Weather Stations






























Interactive Weather Map
Tropical Storm Tracking
New forecast layout! Learn more

10-Day Weather Forecast

Advertisements
Track Severe Weather on mobile